Flight Track Log - Related Links

Times and Time Zones

All times are in EDT time to prevent confusion due to time zone crossing. See the SWA2336 flight status page for this flight to view local times or setup timezone preferences in your user account.

Time Position Orientation Groundspeed Altitude Reporting Facility
EDT Latitude Longitude Course Direction KTS MPH feet Rate Location/Type
Sat 10:34:08 AM 27.9333 -82.5500 180° South 182 209 2,500  Level Tampa TRACON
Sat 10:35:08 AM 27.8833 -82.6000 221° Southwest 241 277 5,700 2,742 Climbing Tampa TRACON
Sat 10:37:14 AM 28.0244 -82.6622 339° North 244 281 11,000 2,000 Climbing Jacksonville Center
Sat 10:38:14 AM 28.1186 -82.6878 347° North 316 364 11,900 1,700 Climbing Jacksonville Center
Sat 10:39:14 AM 28.2125 -82.7136 346° North 327 376 14,400 2,600 Climbing Jacksonville Center
Sat 10:40:14 AM 28.3064 -82.7394 346° North 332 382 17,100 2,500 Climbing Jacksonville Center
Sat 10:41:14 AM 28.4067 -82.7675 346° North 351 404 19,400 2,500 Climbing Jacksonville Center
Sat 10:42:14 AM 28.5192 -82.7814 354° North 375 432 22,100 2,400 Climbing Jacksonville Center
Sat 10:43:14 AM 28.6339 -82.7719 North 389 448 24,200 1,950 Climbing Jacksonville Center
Sat 10:44:14 AM 28.7489 -82.7717 360° North 402 463 26,000 900 Climbing Jacksonville Center
Sat 10:45:14 AM 28.8636 -82.8097 344° North 412 474 26,000 750 Level Jacksonville Center
Sat 10:46:14 AM 28.9806 -82.8450 345° North 412 474 27,500 1,650 Climbing Jacksonville Center
Sat 10:47:14 AM 29.0994 -82.8856 343° North 424 488 29,300 1,250 Climbing Jacksonville Center
Sat 10:48:14 AM 29.2186 -82.9236 344° North 437 503 30,000 300 Climbing Jacksonville Center
Sat 10:49:14 AM 29.3353 -82.9639 343° North 437 503 29,900  Descending Jacksonville Center
Sat 10:50:14 AM 29.4481 -83.0000 344° North 437 503 30,000 50 Climbing Jacksonville Center
Sat 10:51:14 AM 29.5525 -83.0358 343° North 437 503 30,000  Level Jacksonville Center
Sat 10:52:14 AM 29.6650 -83.0814 341° North 437 503 30,000 850 Level Jacksonville Center
Sat 10:53:14 AM 29.7756 -83.1342 337° Northwest 432 497 31,700 1,000 Climbing Jacksonville Center
Sat 10:54:14 AM 29.8819 -83.1825 339° North 426 490 32,000 150 Climbing Jacksonville Center
Sat 10:55:14 AM 30.0008 -83.2381 338° Northwest 413 475 32,000  Level Jacksonville Center
Sat 10:56:14 AM 30.0969 -83.2814 339° North 413 475 32,000  Level Jacksonville Center
Sat 10:57:14 AM 30.2031 -83.3300 338° Northwest 413 475 32,000  Level Jacksonville Center
Sat 10:58:14 AM 30.3094 -83.3786 338° Northwest 413 475 32,000  Level Jacksonville Center
Sat 10:59:14 AM 30.4178 -83.4297 338° Northwest 413 475 32,000  Level Jacksonville Center
Sat 11:00:14 AM 30.5261 -83.4811 338° Northwest 418 481 32,000  Level Jacksonville Center
Sat 11:01:14 AM 30.6344 -83.5325 338° Northwest 418 481 32,000  Level Jacksonville Center
Sat 11:02:14 AM 30.7406 -83.5839 337° Northwest 418 481 32,000  Level Jacksonville Center
Sat 11:03:14 AM 30.8489 -83.6356 338° Northwest 418 481 32,000  Level Jacksonville Center
Sat 11:04:14 AM 30.9656 -83.6897 338° Northwest 418 481 32,000  Level Jacksonville Center
Sat 11:05:14 AM 31.0758 -83.7439 337° Northwest 418 481 32,000  Level Jacksonville Center
Sat 11:06:14 AM 31.1842 -83.7958 338° Northwest 418 481 32,000  Level Jacksonville Center
Sat 11:07:14 AM 31.2922 -83.8481 338° Northwest 418 481 32,000  Level Jacksonville Center
Sat 11:09:10 AM 31.4900 -83.9464 337° Northwest 421 484 32,000  Level Atlanta Center
Sat 11:10:10 AM 31.6067 -83.9828 345° North 421 484 32,000  Level Atlanta Center
Sat 11:11:10 AM 31.7258 -84.0072 350° North 426 490 32,000  Level Atlanta Center
Sat 11:12:10 AM 31.8467 -84.0339 349° North 433 498 32,000 750 Level Atlanta Center
Sat 11:13:10 AM 31.9700 -84.0608 350° North 439 505 33,500 1,000 Climbing Atlanta Center
Sat 11:14:10 AM 32.0953 -84.0878 350° North 450 518 34,000 250 Climbing Atlanta Center
Sat 11:15:10 AM 32.2183 -84.1150 349° North 450 518 34,000 700 Level Atlanta Center
Sat 11:16:10 AM 32.3414 -84.1444 349° North 450 518 35,400 1,950 Climbing Atlanta Center
Sat 11:17:10 AM 32.4603 -84.1692 350° North 450 518 37,900 2,250 Climbing Atlanta Center
Sat 11:18:10 AM 32.5711 -84.1967 348° North 428 493 39,900 1,050 Climbing Atlanta Center
Sat 11:19:10 AM 32.6794 -84.2214 349° North 410 472 40,000 50 Climbing Atlanta Center
Sat 11:20:10 AM 32.7881 -84.2464 349° North 400 460 40,000  Level Atlanta Center
Sat 11:21:10 AM 32.8944 -84.2664 351° North 389 448 40,000  Level Atlanta Center
Sat 11:22:10 AM 33.0008 -84.2939 348° North 389 448 40,000  Level Atlanta Center
Sat 11:23:10 AM 33.1114 -84.3192 349° North 395 455 40,000  Level Atlanta Center
Sat 11:24:10 AM 33.2178 -84.3442 349° North 395 455 40,000  Level Atlanta Center
Sat 11:25:10 AM 33.3264 -84.3669 350° North 395 455 40,000  Level Atlanta Center
Sat 11:26:10 AM 33.4453 -84.3947 349° North 390 449 40,000  Level Atlanta Center
Sat 11:27:10 AM 33.5517 -84.4203 349° North 395 455 40,000  Level Atlanta Center
Sat 11:28:10 AM 33.6619 -84.4456 349° North 395 455 40,000  Level Atlanta Center
Sat 11:29:10 AM 33.7683 -84.4736 348° North 395 455 40,000  Level Atlanta Center
Sat 11:30:10 AM 33.8811 -84.4992 349° North 395 455 40,000  Level Atlanta Center
Sat 11:32:10 AM 34.1061 -84.5581 348° North 406 467 40,000  Level Atlanta Center
Sat 11:33:10 AM 34.2147 -84.5789 351° North 428 493 40,000  Level Atlanta Center
Sat 11:34:10 AM 34.3378 -84.6072 349° North 422 486 40,000  Level Atlanta Center
Sat 11:35:10 AM 34.4522 -84.6358 348° North 415 478 40,000  Level Atlanta Center
Sat 11:36:10 AM 34.5669 -84.6644 348° North 410 472 40,000  Level Atlanta Center
Sat 11:37:10 AM 34.6753 -84.6931 348° North 410 472 40,000  Level Atlanta Center
Sat 11:38:10 AM 34.7878 -84.7217 348° North 410 472 40,000  Level Atlanta Center
Sat 11:39:10 AM 34.9025 -84.7506 348° North 410 472 40,000  Level Atlanta Center
Sat 11:40:10 AM 35.0150 -84.7767 349° North 410 472 40,000  Level Atlanta Center
Sat 11:41:10 AM 35.1275 -84.8058 348° North 410 472 40,000  Level Atlanta Center
Sat 11:42:10 AM 35.2400 -84.8322 349° North 410 472 40,000  Level Atlanta Center
Sat 11:43:10 AM 35.3525 -84.8611 348° North 410 472 40,000  Level Atlanta Center
Sat 11:44:10 AM 35.4669 -84.8906 348° North 410 472 40,000  Level Atlanta Center
Sat 11:45:10 AM 35.5794 -84.9197 348° North 410 472 40,000  Level Atlanta Center
Sat 11:46:10 AM 35.6900 -84.9489 348° North 410 472 40,000  Level Atlanta Center
Sat 11:47:10 AM 35.7981 -84.9733 350° North 415 478 40,000  Level Atlanta Center
Sat 11:49:15 AM 36.0442 -85.0356 348° North 417 480 40,000  Level Indianapolis Center
Sat 11:50:16 AM 36.1603 -85.0653 348° North 421 484 40,000  Level Indianapolis Center
Sat 11:51:18 AM 36.2769 -85.0953 348° North 426 490 40,000 -98 Level Indianapolis Center
Sat 11:52:19 AM 36.3936 -85.1244 349° North 426 490 39,800 -590 Descending Indianapolis Center
Sat 11:53:20 AM 36.5086 -85.1547 348° North 423 487 38,800 -976 Descending Indianapolis Center
Sat 11:54:22 AM 36.6247 -85.1858 348° North 427 491 37,800 -976 Descending Indianapolis Center
Sat 11:55:23 AM 36.7431 -85.2156 349° North 433 498 36,800 -1,230 Descending Indianapolis Center
Sat 11:56:24 AM 36.8603 -85.2472 348° North 431 496 35,300 -1,854 Descending Indianapolis Center
Sat 11:57:26 AM 36.9756 -85.2767 348° North 424 488 33,000 -2,585 Descending Indianapolis Center
Sat 11:58:27 AM 37.0972 -85.3092 348° North 417 480 30,000 -2,459 Descending Indianapolis Center
Sat 11:59:28 AM 37.2133 -85.3406 348° North 423 487 28,000 -976 Descending Indianapolis Center
Sat 12:00:30 PM 37.3319 -85.3706 349° North 431 496 28,000  Level Indianapolis Center
Sat 12:01:31 PM 37.4606 -85.4039 348° North 407 468 28,000  Level Indianapolis Center
Sat 12:02:32 PM 37.5697 -85.4342 348° North 402 463 28,000  Level Indianapolis Center
Sat 12:03:34 PM 37.6792 -85.4631 348° North 400 460 28,000  Level Indianapolis Center
Sat 12:04:35 PM 37.7883 -85.4919 348° North 399 459 28,000  Level Indianapolis Center
Sat 12:05:36 PM 37.8983 -85.5214 348° North 407 468 28,000  Level Indianapolis Center
Sat 12:06:38 PM 38.0078 -85.5508 348° North 403 464 28,000  Level Indianapolis Center
Sat 12:07:39 PM 38.1158 -85.5792 348° North 398 458 28,000  Level Indianapolis Center
Sat 12:08:40 PM 38.2311 -85.5917 355° North 409 471 28,000 -488 Level Indianapolis Center
Sat 12:09:42 PM 38.3456 -85.6058 354° North 411 473 27,000 -1,756 Descending Indianapolis Center
Sat 12:10:43 PM 38.4594 -85.6203 354° North 411 473 24,400 -2,195 Descending Indianapolis Center
Sat 12:11:45 PM 38.5722 -85.6331 355° North 408 470 22,500 -1,756 Descending Indianapolis Center
Sat 12:12:46 PM 38.6772 -85.6514 352° North 381 438 20,800 -1,820 Descending Indianapolis Center
Sat 12:13:47 PM 38.7956 -85.6736 352° North 361 415 18,800 -1,756 Descending Indianapolis Center
Sat 12:14:49 PM 38.8883 -85.6883 353° North 346 398 17,200 -1,463 Descending Indianapolis Center
Sat 12:15:50 PM 38.9781 -85.7050 352° North 332 382 15,800 -1,426 Descending Indianapolis Center
Sat 12:16:51 PM 39.0636 -85.7208 352° North 318 366 14,300 -1,073 Descending Indianapolis Center
Sat 12:17:53 PM 39.1481 -85.7356 352° North 309 356 13,600 -829 Descending Indianapolis Center
Sat 12:18:54 PM 39.2353 -85.7514 352° North 316 364 12,600 -984 Descending Indianapolis Center
Sat 12:19:55 PM 39.3186 -85.7747 348° North 311 358 11,600 -1,024 Descending Indianapolis Center
Sat 12:20:57 PM 39.3903 -85.8597 318° Northwest 291 335 10,500 -780 Descending Indianapolis Center
Sat 12:21:58 PM 39.4536 -85.9344 318° Northwest 305 351 10,000 -293 Descending Indianapolis Center
Sat 12:23:00 PM 39.5144 -86.0069 317° Northwest 301 346 9,900 -732 Descending Indianapolis Center
Sat 12:24:01 PM 39.5692 -86.0719 318° Northwest 279 321 8,500 -1,426 Descending Indianapolis Center
Sat 12:25:02 PM 39.6219 -86.1356 317° Northwest 265 305 7,000 -833 Descending Indianapolis Center
Sat 12:25:49 PM 39.6667 -86.1500 346° North 239 275 7,000 -561 Level Indianapolis TRACON
Sat 12:26:49 PM 39.7167 -86.1000 38° Northeast 224 258 6,000 -868 Descending Indianapolis TRACON
Sat 12:27:05 PM 39.7269 -86.0961 16° North 233 268 5,900 -1,403 Descending Indianapolis Center
Sat 12:28:06 PM 39.7864 -86.0625 23° Northeast 214 246 4,200 -1,171 Descending Indianapolis Center
Sat 12:29:08 PM 39.8289 -86.0894 334° Northwest 190 219 3,500 -699 Descending Indianapolis Center
Sat 12:29:49 PM 39.8333 -86.1333 278° West 152 175 3,000 -475 Descending Indianapolis TRACON
Sat 12:30:49 PM 39.8167 -86.1833 247° West 158 182 2,700 -350 Descending Indianapolis TRACON
Sat 12:31:49 PM 39.7833 -86.2167 218° Southwest 165 190 2,300 -550 Descending Indianapolis TRACON
Sat 12:32:49 PM 39.7500 -86.2500 218° Southwest 143 165 1,600 -700 Descending Indianapolis TRACON

Login

Don't have an account? Register now (free) for customized features, flight alerts, and more!